sensor_id;sensor_type;location;lat;lon;timestamp;temperature;humidity
1950;DHT22;975;48.760;9.152;2023-04-06T02:08:27;4.00;85.30
1950;DHT22;975;48.760;9.152;2023-04-06T02:11:15;1.10;96.70
1950;DHT22;975;48.760;9.152;2023-04-06T02:14:04;1.10;96.80
1950;DHT22;975;48.760;9.152;2023-04-06T02:16:54;1.10;96.60
1950;DHT22;975;48.760;9.152;2023-04-06T02:19:42;1.10;96.60
1950;DHT22;975;48.760;9.152;2023-04-06T02:22:35;1.10;96.50
1950;DHT22;975;48.760;9.152;2023-04-06T02:25:22;1.10;96.50
1950;DHT22;975;48.760;9.152;2023-04-06T02:28:10;1.20;96.40
1950;DHT22;975;48.760;9.152;2023-04-06T02:30:59;1.20;96.60
1950;DHT22;975;48.760;9.152;2023-04-06T04:20:35;1.20;96.60
1950;DHT22;975;48.760;9.152;2023-04-06T04:23:22;0.30;98.90
1950;DHT22;975;48.760;9.152;2023-04-06T04:26:10;0.20;99.10
1950;DHT22;975;48.760;9.152;2023-04-06T04:28:59;0.20;99.50
1950;DHT22;975;48.760;9.152;2023-04-06T04:31:47;0.20;99.40
1950;DHT22;975;48.760;9.152;2023-04-06T04:34:40;0.30;99.50
1950;DHT22;975;48.760;9.152;2023-04-06T09:18:48;0.40;99.40
1950;DHT22;975;48.760;9.152;2023-04-06T09:21:36;13.20;57.30
1950;DHT22;975;48.760;9.152;2023-04-06T09:24:24;13.20;58.40
1950;DHT22;975;48.760;9.152;2023-04-06T09:27:13;13.30;58.20
1950;DHT22;975;48.760;9.152;2023-04-06T09:30:05;13.20;59.00
1950;DHT22;975;48.760;9.152;2023-04-06T09:32:56;13.20;59.00
1950;DHT22;975;48.760;9.152;2023-04-06T09:35:49;13.00;59.50
1950;DHT22;975;48.760;9.152;2023-04-06T09:44:17;12.70;59.60
1950;DHT22;975;48.760;9.152;2023-04-06T09:47:06;12.70;59.80
1950;DHT22;975;48.760;9.152;2023-04-06T09:49:57;12.90;59.50
1950;DHT22;975;48.760;9.152;2023-04-06T09:52:48;12.60;58.20
1950;DHT22;975;48.760;9.152;2023-04-06T09:55:40;12.50;56.50
1950;DHT22;975;48.760;9.152;2023-04-06T09:58:34;12.50;55.50
1950;DHT22;975;48.760;9.152;2023-04-06T10:01:26;12.50;55.20
1950;DHT22;975;48.760;9.152;2023-04-06T10:04:24;12.70;55.30
1950;DHT22;975;48.760;9.152;2023-04-06T10:07:16;13.00;55.60
1950;DHT22;975;48.760;9.152;2023-04-06T10:10:05;13.20;54.50
1950;DHT22;975;48.760;9.152;2023-04-06T10:12:54;13.30;53.80
1950;DHT22;975;48.760;9.152;2023-04-06T10:15:43;13.30;53.20
1950;DHT22;975;48.760;9.152;2023-04-06T10:18:31;13.10;53.20
1950;DHT22;975;48.760;9.152;2023-04-06T10:21:23;13.00;53.20
1950;DHT22;975;48.760;9.152;2023-04-06T10:24:14;13.10;53.40
1950;DHT22;975;48.760;9.152;2023-04-06T10:27:04;12.90;53.40
1950;DHT22;975;48.760;9.152;2023-04-06T10:30:01;13.00;54.20
1950;DHT22;975;48.760;9.152;2023-04-06T10:32:48;13.30;54.10
1950;DHT22;975;48.760;9.152;2023-04-06T10:35:37;13.30;53.50
1950;DHT22;975;48.760;9.152;2023-04-06T10:38:34;13.50;53.50
1950;DHT22;975;48.760;9.152;2023-04-06T10:41:23;13.70;53.10
1950;DHT22;975;48.760;9.152;2023-04-06T10:44:17;13.80;51.40
1950;DHT22;975;48.760;9.152;2023-04-06T10:47:15;13.80;51.30
1950;DHT22;975;48.760;9.152;2023-04-06T10:50:03;13.90;51.80
1950;DHT22;975;48.760;9.152;2023-04-06T10:53:01;13.60;50.80
1950;DHT22;975;48.760;9.152;2023-04-06T10:55:50;13.60;51.50
1950;DHT22;975;48.760;9.152;2023-04-06T10:58:44;13.80;51.90
1950;DHT22;975;48.760;9.152;2023-04-06T11:01:32;13.80;50.90
1950;DHT22;975;48.760;9.152;2023-04-06T11:04:20;13.90;51.40
1950;DHT22;975;48.760;9.152;2023-04-06T11:07:09;14.00;51.00
1950;DHT22;975;48.760;9.152;2023-04-06T11:09:57;14.20;50.80
1950;DHT22;975;48.760;9.152;2023-04-06T11:12:45;14.30;50.60
1950;DHT22;975;48.760;9.152;2023-04-06T11:15:40;14.30;50.00
1950;DHT22;975;48.760;9.152;2023-04-06T11:18:34;14.20;50.10
1950;DHT22;975;48.760;9.152;2023-04-06T11:21:33;14.30;50.20
1950;DHT22;975;48.760;9.152;2023-04-06T11:24:21;14.20;50.30
1950;DHT22;975;48.760;9.152;2023-04-06T11:27:09;14.30;50.50
1950;DHT22;975;48.760;9.152;2023-04-06T11:29:57;14.30;51.10
1950;DHT22;975;48.760;9.152;2023-04-06T11:32:47;14.20;50.40
1950;DHT22;975;48.760;9.152;2023-04-06T11:44:01;14.40;50.60
1950;DHT22;975;48.760;9.152;2023-04-06T11:46:52;14.40;49.80
1950;DHT22;975;48.760;9.152;2023-04-06T11:49:42;14.60;51.40
1950;DHT22;975;48.760;9.152;2023-04-06T12:03:51;14.90;49.00
1950;DHT22;975;48.760;9.152;2023-04-06T12:06:40;15.40;46.80
1950;DHT22;975;48.760;9.152;2023-04-06T12:09:28;15.40;47.30
1950;DHT22;975;48.760;9.152;2023-04-06T12:12:16;15.50;46.60
1950;DHT22;975;48.760;9.152;2023-04-06T12:15:04;15.20;47.30
1950;DHT22;975;48.760;9.152;2023-04-06T12:17:52;15.30;49.80
1950;DHT22;975;48.760;9.152;2023-04-06T12:20:40;15.60;47.20
1950;DHT22;975;48.760;9.152;2023-04-06T12:23:29;15.80;45.80
1950;DHT22;975;48.760;9.152;2023-04-06T12:26:16;15.80;46.00
1950;DHT22;975;48.760;9.152;2023-04-06T12:40:18;15.90;46.20
1950;DHT22;975;48.760;9.152;2023-04-06T12:43:06;16.30;44.80
1950;DHT22;975;48.760;9.152;2023-04-06T12:45:53;16.00;44.60
1950;DHT22;975;48.760;9.152;2023-04-06T12:48:42;15.80;45.70
1950;DHT22;975;48.760;9.152;2023-04-06T12:51:30;15.70;44.60
1950;DHT22;975;48.760;9.152;2023-04-06T12:54:18;15.70;44.50
1950;DHT22;975;48.760;9.152;2023-04-06T12:57:07;15.40;45.10
1950;DHT22;975;48.760;9.152;2023-04-06T12:59:55;15.30;45.20
1950;DHT22;975;48.760;9.152;2023-04-06T13:02:42;15.10;45.70
1950;DHT22;975;48.760;9.152;2023-04-06T13:05:32;15.40;45.20
1950;DHT22;975;48.760;9.152;2023-04-06T13:36:25;15.70;46.10
1950;DHT22;975;48.760;9.152;2023-04-06T13:39:13;16.70;43.20
1950;DHT22;975;48.760;9.152;2023-04-06T14:35:30;17.00;43.40
1950;DHT22;975;48.760;9.152;2023-04-06T14:38:20;17.30;40.80
1950;DHT22;975;48.760;9.152;2023-04-06T14:41:08;16.90;40.40
1950;DHT22;975;48.760;9.152;2023-04-06T14:43:56;16.40;40.60
1950;DHT22;975;48.760;9.152;2023-04-06T14:46:44;16.20;41.70
1950;DHT22;975;48.760;9.152;2023-04-06T14:49:32;16.20;42.20
1950;DHT22;975;48.760;9.152;2023-04-06T14:52:27;16.40;42.40
1950;DHT22;975;48.760;9.152;2023-04-06T14:55:21;16.30;40.60
1950;DHT22;975;48.760;9.152;2023-04-06T14:58:09;16.10;41.00
1950;DHT22;975;48.760;9.152;2023-04-06T15:00:58;16.10;41.80
1950;DHT22;975;48.760;9.152;2023-04-06T15:03:46;16.00;42.20
1950;DHT22;975;48.760;9.152;2023-04-06T15:06:34;16.10;42.80
1950;DHT22;975;48.760;9.152;2023-04-06T15:09:22;16.40;41.40
1950;DHT22;975;48.760;9.152;2023-04-06T15:12:11;16.60;41.40
1950;DHT22;975;48.760;9.152;2023-04-06T15:14:58;16.60;41.10
1950;DHT22;975;48.760;9.152;2023-04-06T15:17:47;16.30;41.10
1950;DHT22;975;48.760;9.152;2023-04-06T15:20:35;16.00;42.30
1950;DHT22;975;48.760;9.152;2023-04-06T15:23:22;15.80;42.30
1950;DHT22;975;48.760;9.152;2023-04-06T15:26:10;15.70;42.10
1950;DHT22;975;48.760;9.152;2023-04-06T15:29:00;15.40;42.60
1950;DHT22;975;48.760;9.152;2023-04-06T15:31:47;15.60;43.10
1950;DHT22;975;48.760;9.152;2023-04-06T15:34:35;15.80;42.50
1950;DHT22;975;48.760;9.152;2023-04-06T15:37:23;16.00;42.30
1950;DHT22;975;48.760;9.152;2023-04-06T15:40:11;16.10;42.30
1950;DHT22;975;48.760;9.152;2023-04-06T15:42:59;15.90;43.50
1950;DHT22;975;48.760;9.152;2023-04-06T15:45:48;15.70;44.10
1950;DHT22;975;48.760;9.152;2023-04-06T15:48:36;15.60;44.60
1950;DHT22;975;48.760;9.152;2023-04-06T15:51:24;15.50;44.20
1950;DHT22;975;48.760;9.152;2023-04-06T15:54:12;15.50;43.90
1950;DHT22;975;48.760;9.152;2023-04-06T15:57:00;15.50;44.30
1950;DHT22;975;48.760;9.152;2023-04-06T15:59:47;15.50;44.60
1950;DHT22;975;48.760;9.152;2023-04-06T16:02:37;15.40;43.80
1950;DHT22;975;48.760;9.152;2023-04-06T16:05:25;15.40;43.10
1950;DHT22;975;48.760;9.152;2023-04-06T16:08:17;15.30;43.30
1950;DHT22;975;48.760;9.152;2023-04-06T16:11:07;15.30;43.60
1950;DHT22;975;48.760;9.152;2023-04-06T16:14:01;15.40;44.20
1950;DHT22;975;48.760;9.152;2023-04-06T16:16:54;15.40;44.60
1950;DHT22;975;48.760;9.152;2023-04-06T16:20:12;15.20;45.40
1950;DHT22;975;48.760;9.152;2023-04-06T16:23:17;15.00;46.30
1950;DHT22;975;48.760;9.152;2023-04-06T16:26:13;14.90;46.40
1950;DHT22;975;48.760;9.152;2023-04-06T16:29:13;15.00;46.60
1950;DHT22;975;48.760;9.152;2023-04-06T16:32:20;15.00;46.80
1950;DHT22;975;48.760;9.152;2023-04-06T16:35:23;14.80;47.20
1950;DHT22;975;48.760;9.152;2023-04-06T16:38:18;14.80;47.40
1950;DHT22;975;48.760;9.152;2023-04-06T16:41:21;14.70;47.90
1950;DHT22;975;48.760;9.152;2023-04-06T16:44:12;14.70;47.80
1950;DHT22;975;48.760;9.152;2023-04-06T16:47:02;14.70;48.00
1950;DHT22;975;48.760;9.152;2023-04-06T16:49:55;14.80;48.40
1950;DHT22;975;48.760;9.152;2023-04-06T16:52:58;14.60;47.70
1950;DHT22;975;48.760;9.152;2023-04-06T16:55:58;14.50;48.30
1950;DHT22;975;48.760;9.152;2023-04-06T16:59:02;14.50;49.20
1950;DHT22;975;48.760;9.152;2023-04-06T17:01:58;14.50;49.20
1950;DHT22;975;48.760;9.152;2023-04-06T17:04:47;14.50;49.40
1950;DHT22;975;48.760;9.152;2023-04-06T17:07:44;14.50;50.60
1950;DHT22;975;48.760;9.152;2023-04-06T17:10:53;14.50;50.70
1950;DHT22;975;48.760;9.152;2023-04-06T17:13:50;14.30;51.00
1950;DHT22;975;48.760;9.152;2023-04-06T17:16:47;14.10;51.60
1950;DHT22;975;48.760;9.152;2023-04-06T17:19:38;13.90;52.20
1950;DHT22;975;48.760;9.152;2023-04-06T17:22:32;13.80;52.40
1950;DHT22;975;48.760;9.152;2023-04-06T17:25:24;13.70;51.20
1950;DHT22;975;48.760;9.152;2023-04-06T17:28:23;13.60;51.10
1950;DHT22;975;48.760;9.152;2023-04-06T17:31:16;13.50;51.10
1950;DHT22;975;48.760;9.152;2023-04-06T17:34:06;13.50;50.40
1950;DHT22;975;48.760;9.152;2023-04-06T17:37:01;13.50;50.30
1950;DHT22;975;48.760;9.152;2023-04-06T17:40:10;13.40;50.50
1950;DHT22;975;48.760;9.152;2023-04-06T17:43:04;13.30;50.10
1950;DHT22;975;48.760;9.152;2023-04-06T17:46:04;13.30;49.30
1950;DHT22;975;48.760;9.152;2023-04-06T17:48:58;13.30;49.70
1950;DHT22;975;48.760;9.152;2023-04-06T17:52:31;13.30;49.70
1950;DHT22;975;48.760;9.152;2023-04-06T17:55:13;13.30;49.40
1950;DHT22;975;48.760;9.152;2023-04-06T17:58:09;13.20;49.90
1950;DHT22;975;48.760;9.152;2023-04-06T18:01:14;13.00;50.30
1950;DHT22;975;48.760;9.152;2023-04-06T18:04:10;12.70;51.10
1950;DHT22;975;48.760;9.152;2023-04-06T18:06:58;12.60;50.90
1950;DHT22;975;48.760;9.152;2023-04-06T18:09:46;12.60;50.80
1950;DHT22;975;48.760;9.152;2023-04-06T18:12:34;12.70;51.00
1950;DHT22;975;48.760;9.152;2023-04-06T18:15:27;12.70;51.70
1950;DHT22;975;48.760;9.152;2023-04-06T18:18:18;12.80;52.10
1950;DHT22;975;48.760;9.152;2023-04-06T18:21:10;12.80;51.60
1950;DHT22;975;48.760;9.152;2023-04-06T18:23:57;12.70;51.60
1950;DHT22;975;48.760;9.152;2023-04-06T18:26:45;12.70;51.80
1950;DHT22;975;48.760;9.152;2023-04-06T18:29:35;12.60;52.10
1950;DHT22;975;48.760;9.152;2023-04-06T18:32:23;12.60;52.20
1950;DHT22;975;48.760;9.152;2023-04-06T18:35:16;12.60;52.00
1950;DHT22;975;48.760;9.152;2023-04-06T18:38:04;12.50;52.70
1950;DHT22;975;48.760;9.152;2023-04-06T18:40:52;12.40;53.30
1950;DHT22;975;48.760;9.152;2023-04-06T18:43:40;12.20;53.90
1950;DHT22;975;48.760;9.152;2023-04-06T18:46:27;12.10;54.00
1950;DHT22;975;48.760;9.152;2023-04-06T18:49:18;12.20;53.50
1950;DHT22;975;48.760;9.152;2023-04-06T18:52:08;12.20;54.40
1950;DHT22;975;48.760;9.152;2023-04-06T18:54:58;12.20;54.30
1950;DHT22;975;48.760;9.152;2023-04-06T18:57:46;12.30;54.20
1950;DHT22;975;48.760;9.152;2023-04-06T19:00:34;12.40;53.80
1950;DHT22;975;48.760;9.152;2023-04-06T19:03:21;12.50;54.80
1950;DHT22;975;48.760;9.152;2023-04-06T19:06:09;12.50;55.40
1950;DHT22;975;48.760;9.152;2023-04-06T19:08:58;12.40;55.20
1950;DHT22;975;48.760;9.152;2023-04-06T19:11:46;12.50;55.10
1950;DHT22;975;48.760;9.152;2023-04-06T19:14:33;12.50;57.20
1950;DHT22;975;48.760;9.152;2023-04-06T19:17:21;12.50;56.80
1950;DHT22;975;48.760;9.152;2023-04-06T19:20:09;12.20;57.80
1950;DHT22;975;48.760;9.152;2023-04-06T19:22:57;12.20;57.80
1950;DHT22;975;48.760;9.152;2023-04-06T19:25:50;12.20;57.90
1950;DHT22;975;48.760;9.152;2023-04-06T19:28:38;12.30;58.10
1950;DHT22;975;48.760;9.152;2023-04-06T19:31:25;12.10;56.20
1950;DHT22;975;48.760;9.152;2023-04-06T19:34:13;11.90;56.60
1950;DHT22;975;48.760;9.152;2023-04-06T19:37:03;11.70;57.00
1950;DHT22;975;48.760;9.152;2023-04-06T19:39:51;11.70;57.70
1950;DHT22;975;48.760;9.152;2023-04-06T19:42:40;11.60;57.60
1950;DHT22;975;48.760;9.152;2023-04-06T19:45:28;11.60;57.70
1950;DHT22;975;48.760;9.152;2023-04-06T19:48:16;11.60;58.00
1950;DHT22;975;48.760;9.152;2023-04-06T19:51:05;11.60;58.90
1950;DHT22;975;48.760;9.152;2023-04-06T19:53:53;11.50;59.10
